createdAt,value
2023-02-07T00:01:21.905Z,1.00
2023-02-07T00:03:49.372Z,1.00
2023-02-07T00:06:26.471Z,0.90
2023-02-07T00:08:54.300Z,0.90
2023-02-07T00:11:23.242Z,1.00
2023-02-07T00:13:53.215Z,1.00
2023-02-07T00:16:20.706Z,1.00
2023-02-07T00:18:48.338Z,1.00
2023-02-07T00:21:23.231Z,1.00
2023-02-07T00:23:50.332Z,1.10
2023-02-07T00:26:18.344Z,1.10
2023-02-07T00:28:45.605Z,1.10
2023-02-07T00:31:22.862Z,1.10
2023-02-07T00:33:51.157Z,1.10
2023-02-07T00:36:20.619Z,1.10
2023-02-07T00:38:48.366Z,1.20
2023-02-07T00:41:20.242Z,1.20
2023-02-07T00:43:48.340Z,1.10
2023-02-07T00:46:16.483Z,1.20
2023-02-07T00:48:43.947Z,1.20
2023-02-07T00:51:13.104Z,1.20
2023-02-07T00:53:41.080Z,1.20
2023-02-07T00:56:09.311Z,1.30
2023-02-07T00:58:36.462Z,1.30
2023-02-07T01:01:04.933Z,1.30
2023-02-07T01:03:32.100Z,1.30
2023-02-07T01:05:59.023Z,1.30
2023-02-07T01:08:26.133Z,1.30
2023-02-07T01:10:53.059Z,1.40
2023-02-07T01:13:20.282Z,1.40
2023-02-07T01:15:48.559Z,1.40
2023-02-07T01:18:15.600Z,1.40
2023-02-07T01:20:42.759Z,1.50
2023-02-07T01:23:11.478Z,1.50
2023-02-07T01:25:39.458Z,1.40
2023-02-07T01:28:07.008Z,1.50
2023-02-07T01:30:34.070Z,1.50
2023-02-07T01:33:01.315Z,1.60
2023-02-07T01:35:28.234Z,1.60
2023-02-07T01:37:55.160Z,1.60
2023-02-07T01:40:22.164Z,1.60
2023-02-07T01:42:49.051Z,1.60
2023-02-07T01:45:30.041Z,1.60
2023-02-07T01:48:02.024Z,1.70
2023-02-07T01:50:29.943Z,1.70
2023-02-07T01:53:00.483Z,1.80
2023-02-07T01:55:32.712Z,1.80
2023-02-07T01:58:01.137Z,1.80
2023-02-07T02:00:28.192Z,1.80
2023-02-07T02:02:55.398Z,1.80
2023-02-07T02:05:23.664Z,1.80
2023-02-07T02:07:50.672Z,1.90
2023-02-07T02:10:21.850Z,1.90
2023-02-07T02:13:12.360Z,1.90
2023-02-07T02:16:02.312Z,1.90
2023-02-07T02:19:24.490Z,1.90
2023-02-07T02:22:35.633Z,2.00
2023-02-07T02:25:11.388Z,2.00
2023-02-07T02:28:03.030Z,1.90
2023-02-07T02:30:47.296Z,2.00
2023-02-07T02:33:20.084Z,2.00
2023-02-07T02:35:58.691Z,2.00
2023-02-07T02:38:40.631Z,2.00
2023-02-07T02:41:21.535Z,2.10
2023-02-07T02:44:12.844Z,2.00
2023-02-07T02:46:41.780Z,2.00
2023-02-07T02:49:11.838Z,2.00
2023-02-07T02:51:38.766Z,2.00
2023-02-07T02:54:29.853Z,2.00
2023-02-07T02:57:21.856Z,2.00
2023-02-07T02:59:51.546Z,2.00
2023-02-07T03:02:39.274Z,2.00
2023-02-07T03:05:34.130Z,2.00
2023-02-07T03:08:16.122Z,2.10
2023-02-07T03:11:19.604Z,2.10
2023-02-07T03:13:58.880Z,2.10
2023-02-07T03:16:34.415Z,2.10
2023-02-07T03:19:14.391Z,2.10
2023-02-07T03:21:55.830Z,2.20
2023-02-07T03:24:34.544Z,2.20
2023-02-07T03:27:06.635Z,2.20
2023-02-07T03:29:37.408Z,2.20
2023-02-07T03:32:06.869Z,2.20
2023-02-07T03:34:50.904Z,2.20
2023-02-07T03:37:27.695Z,2.20
2023-02-07T03:39:54.872Z,2.30
2023-02-07T03:43:04.622Z,2.30
2023-02-07T03:45:31.679Z,2.30
2023-02-07T03:47:58.624Z,2.30
2023-02-07T03:50:25.562Z,2.30
2023-02-07T03:52:52.468Z,2.30
2023-02-07T03:55:19.367Z,2.30
2023-02-07T03:57:46.338Z,2.30
2023-02-07T04:00:13.998Z,2.40
2023-02-07T04:02:41.372Z,2.40
2023-02-07T04:05:08.741Z,2.40
2023-02-07T04:07:35.653Z,2.40
2023-02-07T04:10:03.448Z,2.50
2023-02-07T04:12:32.975Z,2.50
2023-02-07T04:15:04.595Z,2.50
2023-02-07T04:17:31.687Z,2.50
2023-02-07T04:19:58.815Z,2.50
2023-02-07T04:22:25.742Z,2.50
2023-02-07T04:24:52.696Z,2.50
2023-02-07T04:27:19.707Z,2.60
2023-02-07T04:29:46.865Z,2.50
2023-02-07T04:32:13.803Z,2.60
2023-02-07T04:34:40.787Z,2.60
2023-02-07T04:37:07.693Z,2.60
2023-02-07T04:39:34.640Z,2.60
2023-02-07T04:42:01.577Z,2.60
2023-02-07T04:44:28.533Z,2.60
2023-02-07T04:46:55.440Z,2.70
2023-02-07T04:49:22.425Z,2.70
2023-02-07T04:51:49.375Z,2.60
2023-02-07T04:54:16.313Z,2.70
2023-02-07T04:56:43.231Z,2.70
2023-02-07T04:59:10.211Z,2.70
2023-02-07T05:01:37.212Z,2.70
2023-02-07T05:04:04.199Z,2.70
2023-02-07T05:06:31.126Z,2.70
2023-02-07T05:08:58.047Z,2.70
2023-02-07T05:11:25.017Z,2.70
2023-02-07T05:13:51.935Z,2.70
2023-02-07T05:16:18.889Z,2.70
2023-02-07T05:18:45.937Z,2.70
2023-02-07T05:21:12.820Z,2.80
2023-02-07T05:23:39.771Z,2.80
2023-02-07T05:26:06.771Z,2.80
2023-02-07T05:28:34.055Z,2.80
2023-02-07T05:31:01.108Z,2.80
2023-02-07T05:33:28.222Z,2.80
2023-02-07T05:35:55.111Z,2.80
2023-02-07T05:38:22.318Z,2.80
2023-02-07T05:40:49.756Z,2.80
2023-02-07T05:43:17.083Z,2.80
2023-02-07T05:45:45.743Z,2.80
2023-02-07T05:48:13.566Z,2.90
2023-02-07T05:50:40.796Z,2.90
2023-02-07T05:53:09.230Z,2.90
2023-02-07T05:55:36.884Z,2.90
2023-02-07T05:58:04.692Z,2.90
2023-02-07T06:00:31.679Z,2.90
2023-02-07T06:02:58.570Z,2.90
2023-02-07T06:05:25.583Z,2.90
2023-02-07T06:07:52.580Z,2.90
2023-02-07T06:10:19.956Z,2.90
2023-02-07T06:12:47.086Z,2.90
2023-02-07T06:15:14.142Z,2.90
2023-02-07T06:17:41.065Z,3.00
2023-02-07T06:20:08.617Z,2.90
2023-02-07T06:22:35.789Z,2.90
2023-02-07T06:25:02.761Z,3.00
2023-02-07T06:27:29.630Z,3.00
2023-02-07T06:29:56.583Z,3.00
2023-02-07T06:32:23.453Z,3.00
2023-02-07T06:34:50.394Z,3.00
2023-02-07T06:37:17.283Z,3.00
2023-02-07T06:39:44.228Z,3.00
2023-02-07T06:42:11.236Z,3.00
2023-02-07T06:44:38.121Z,3.00
2023-02-07T06:47:05.175Z,3.00
2023-02-07T06:49:32.069Z,3.00
2023-02-07T06:51:59.124Z,3.00
2023-02-07T06:54:26.092Z,3.00
2023-02-07T06:56:53.006Z,3.00
2023-02-07T06:59:19.939Z,3.00
2023-02-07T07:01:49.397Z,3.00
2023-02-07T07:04:16.588Z,3.10
2023-02-07T07:06:43.627Z,3.10
2023-02-07T07:09:10.638Z,3.10
2023-02-07T07:11:42.930Z,3.00
2023-02-07T07:14:10.767Z,3.10
2023-02-07T07:16:38.262Z,3.10
2023-02-07T07:19:05.157Z,3.10
2023-02-07T07:21:32.092Z,3.10
2023-02-07T07:23:59.334Z,3.10
2023-02-07T07:26:29.734Z,3.10
2023-02-07T07:29:00.759Z,3.10
2023-02-07T07:31:27.797Z,3.10
2023-02-07T07:33:54.978Z,3.10
2023-02-07T07:36:22.140Z,3.20
2023-02-07T07:38:50.159Z,3.10
2023-02-07T07:41:17.869Z,3.10
2023-02-07T07:43:44.827Z,3.10
2023-02-07T07:46:11.812Z,3.10
2023-02-07T07:48:38.799Z,3.10
2023-02-07T07:51:05.994Z,3.20
2023-02-07T07:53:33.000Z,3.20
2023-02-07T07:55:59.942Z,3.20
2023-02-07T07:58:27.653Z,3.20
2023-02-07T08:00:54.893Z,3.20
2023-02-07T08:03:22.708Z,3.30
2023-02-07T08:05:50.068Z,3.20
2023-02-07T08:08:19.805Z,3.30
2023-02-07T08:10:47.727Z,3.30
2023-02-07T08:13:14.720Z,3.30
2023-02-07T08:15:42.161Z,3.30
2023-02-07T08:18:09.283Z,3.30
2023-02-07T08:20:36.345Z,3.30
2023-02-07T08:23:04.004Z,3.30
2023-02-07T08:25:31.005Z,3.30
2023-02-07T08:27:58.005Z,3.40
2023-02-07T08:30:25.946Z,3.40
2023-02-07T08:32:53.002Z,3.40
2023-02-07T08:35:19.996Z,3.40
2023-02-07T08:37:46.950Z,3.40
2023-02-07T08:40:14.473Z,3.40
2023-02-07T08:42:41.672Z,3.40
2023-02-07T08:45:09.301Z,3.40
2023-02-07T08:47:36.229Z,3.40
2023-02-07T08:50:04.829Z,3.40
2023-02-07T08:52:31.884Z,3.40
2023-02-07T08:54:58.793Z,3.40
2023-02-07T08:57:25.890Z,3.40
2023-02-07T08:59:53.806Z,3.40
2023-02-07T09:02:21.120Z,3.40
2023-02-07T09:04:48.439Z,3.40
2023-02-07T09:07:15.759Z,3.40
2023-02-07T09:09:42.741Z,3.50
2023-02-07T09:12:10.960Z,3.50
2023-02-07T09:14:39.124Z,3.50
2023-02-07T09:17:07.502Z,3.50
2023-02-07T09:19:35.623Z,3.50
2023-02-07T09:22:03.676Z,3.50
2023-02-07T09:24:30.587Z,3.60
2023-02-07T09:26:57.515Z,3.50
2023-02-07T09:29:24.778Z,3.60
2023-02-07T09:31:51.841Z,3.60
2023-02-07T09:34:19.751Z,3.60
2023-02-07T09:36:46.877Z,3.60
2023-02-07T09:39:13.877Z,3.60
2023-02-07T09:42:11.832Z,3.60
2023-02-07T09:44:51.116Z,3.60
2023-02-07T09:47:23.734Z,3.60
2023-02-07T09:50:27.168Z,3.60
2023-02-07T09:53:03.420Z,3.60
2023-02-07T09:55:42.447Z,3.60
2023-02-07T09:58:33.154Z,3.60
2023-02-07T10:01:09.214Z,3.60
2023-02-07T10:03:42.890Z,3.60
2023-02-07T10:06:22.344Z,3.60
2023-02-07T10:08:54.489Z,3.60
2023-02-07T10:11:27.539Z,3.60
2023-02-07T10:14:14.740Z,3.60
2023-02-07T10:17:03.204Z,3.60
2023-02-07T10:19:36.303Z,3.60
2023-02-07T10:22:25.026Z,3.50
2023-02-07T10:24:51.883Z,3.60
2023-02-07T10:27:32.174Z,3.60
2023-02-07T10:30:19.401Z,3.50
2023-02-07T10:32:47.652Z,3.50
2023-02-07T10:35:25.405Z,3.50
2023-02-07T10:37:56.933Z,3.50
2023-02-07T10:40:55.575Z,3.50
2023-02-07T10:43:32.630Z,3.50
2023-02-07T10:46:21.820Z,3.50
2023-02-07T10:48:49.674Z,3.50
2023-02-07T10:51:27.607Z,3.50
2023-02-07T10:54:08.692Z,3.50
2023-02-07T10:56:42.867Z,3.50
2023-02-07T10:59:35.321Z,3.50
2023-02-07T11:02:04.447Z,3.50
2023-02-07T11:04:38.712Z,3.50
2023-02-07T11:07:08.003Z,3.50
2023-02-07T11:09:38.130Z,3.60
2023-02-07T11:12:34.369Z,3.60
2023-02-07T11:15:08.099Z,3.60
2023-02-07T11:17:36.154Z,3.60
2023-02-07T11:20:06.014Z,3.60
2023-02-07T11:22:33.080Z,3.60
2023-02-07T11:25:06.716Z,3.60
2023-02-07T11:27:42.228Z,3.60
2023-02-07T11:30:18.320Z,3.60
2023-02-07T11:33:02.788Z,3.60
2023-02-07T11:35:29.744Z,3.60
2023-02-07T11:38:02.492Z,3.60
2023-02-07T11:40:42.422Z,3.60
2023-02-07T11:43:09.292Z,3.60
2023-02-07T11:45:38.843Z,3.60
2023-02-07T11:48:06.436Z,3.70
2023-02-07T11:50:40.985Z,3.60
2023-02-07T11:53:17.399Z,3.70
2023-02-07T11:55:44.513Z,3.60
2023-02-07T11:58:35.857Z,3.60
2023-02-07T12:01:07.761Z,3.60
2023-02-07T12:03:41.472Z,3.60
2023-02-07T12:06:15.856Z,3.60
2023-02-07T12:08:46.148Z,3.60
2023-02-07T12:11:21.521Z,3.60
2023-02-07T12:14:22.446Z,3.60
2023-02-07T12:16:54.180Z,3.60
2023-02-07T12:19:33.461Z,3.60
2023-02-07T12:22:00.301Z,3.60
2023-02-07T12:24:43.067Z,3.60
2023-02-07T12:27:16.927Z,3.60
2023-02-07T12:30:02.395Z,3.60
2023-02-07T12:33:24.284Z,3.60
2023-02-07T12:36:12.087Z,3.60
2023-02-07T12:38:56.634Z,3.60
2023-02-07T12:41:33.974Z,3.60
2023-02-07T12:44:24.106Z,3.70
2023-02-07T12:46:59.359Z,3.70
2023-02-07T12:50:13.913Z,3.70
2023-02-07T12:53:13.896Z,3.70
2023-02-07T12:55:46.232Z,3.60
2023-02-07T12:58:35.583Z,3.70
2023-02-07T13:01:08.219Z,3.70
2023-02-07T13:04:04.588Z,3.70
2023-02-07T13:06:50.703Z,3.70
2023-02-07T13:09:31.859Z,3.70
2023-02-07T13:12:18.260Z,3.70
2023-02-07T13:14:54.159Z,3.70
2023-02-07T13:18:07.810Z,3.70
2023-02-07T13:21:46.871Z,3.70
2023-02-07T13:24:37.623Z,3.70
2023-02-07T13:27:12.640Z,3.70
2023-02-07T13:29:40.594Z,3.70
2023-02-07T13:32:27.926Z,3.70
2023-02-07T13:35:23.473Z,3.70
2023-02-07T13:38:40.755Z,3.70
2023-02-07T13:41:22.900Z,3.70
2023-02-07T13:44:13.310Z,3.70
2023-02-07T13:47:13.795Z,3.70
2023-02-07T13:49:49.865Z,3.70
2023-02-07T13:52:27.615Z,3.70
2023-02-07T13:55:32.010Z,3.60
2023-02-07T13:58:17.708Z,3.60
2023-02-07T14:00:47.642Z,3.60
2023-02-07T14:03:24.067Z,3.60
2023-02-07T14:05:52.484Z,3.70
2023-02-07T14:08:22.116Z,3.70
2023-02-07T14:10:56.570Z,3.70
2023-02-07T14:13:26.297Z,3.70
2023-02-07T14:15:59.169Z,3.70
2023-02-07T14:18:40.777Z,3.70
2023-02-07T14:21:22.747Z,3.70
2023-02-07T14:24:14.431Z,3.70
2023-02-07T14:26:42.789Z,3.70
2023-02-07T14:29:24.592Z,3.70
2023-02-07T14:32:19.778Z,3.80
2023-02-07T14:35:01.804Z,3.80
2023-02-07T14:37:49.289Z,3.80
2023-02-07T14:40:31.660Z,3.80
2023-02-07T14:43:09.978Z,3.80
2023-02-07T14:45:38.722Z,3.80
2023-02-07T14:48:26.867Z,3.80
2023-02-07T14:50:55.040Z,3.80
2023-02-07T14:53:22.197Z,3.80
2023-02-07T14:55:54.844Z,3.80
2023-02-07T14:58:33.469Z,3.80
2023-02-07T15:01:00.440Z,3.80
2023-02-07T15:03:33.324Z,3.80
2023-02-07T15:06:04.285Z,3.80
2023-02-07T15:08:34.873Z,3.80
2023-02-07T15:11:12.183Z,3.80
2023-02-07T15:13:39.027Z,3.80
2023-02-07T15:16:14.503Z,3.80
2023-02-07T15:19:05.399Z,3.90
2023-02-07T15:21:38.979Z,3.90
2023-02-07T15:24:07.596Z,3.90
2023-02-07T15:26:36.310Z,3.90
2023-02-07T15:29:06.817Z,3.90
2023-02-07T15:31:41.203Z,3.90
2023-02-07T15:34:15.787Z,3.90
2023-02-07T15:36:45.983Z,3.90
2023-02-07T15:39:27.037Z,3.90
2023-02-07T15:41:55.696Z,3.90
2023-02-07T15:44:30.573Z,3.90
2023-02-07T15:47:06.960Z,3.90
2023-02-07T15:49:41.768Z,3.90
2023-02-07T15:52:14.547Z,3.90
2023-02-07T15:54:46.710Z,3.90
2023-02-07T15:57:35.131Z,3.90
2023-02-07T16:00:14.002Z,4.00
2023-02-07T16:02:52.552Z,3.90
2023-02-07T16:05:29.859Z,3.90
2023-02-07T16:07:58.043Z,3.90
2023-02-07T16:10:24.903Z,3.90
2023-02-07T16:12:55.370Z,3.90
2023-02-07T16:15:34.009Z,3.90
2023-02-07T16:18:02.544Z,3.90
2023-02-07T16:20:31.385Z,3.90
2023-02-07T16:23:03.792Z,4.00
2023-02-07T16:25:34.400Z,4.00
2023-02-07T16:28:03.399Z,4.00
2023-02-07T16:30:33.214Z,4.00
2023-02-07T16:33:05.203Z,4.00
2023-02-07T16:35:32.192Z,4.00
2023-02-07T16:37:59.184Z,4.00
2023-02-07T16:40:27.105Z,4.00
2023-02-07T16:42:55.040Z,4.10
2023-02-07T16:45:27.320Z,4.10
2023-02-07T16:47:55.395Z,4.10
2023-02-07T16:50:32.496Z,4.10
2023-02-07T16:52:59.613Z,4.10
2023-02-07T16:55:28.468Z,4.10
2023-02-07T16:57:57.358Z,4.00
2023-02-07T17:00:26.383Z,4.10
2023-02-07T17:02:54.113Z,4.10
2023-02-07T17:05:22.492Z,4.10
2023-02-07T17:07:50.604Z,4.10
2023-02-07T17:10:28.574Z,4.10
2023-02-07T17:12:55.821Z,4.10
2023-02-07T17:15:23.397Z,4.10
2023-02-07T17:17:52.660Z,4.10
2023-02-07T17:20:34.437Z,4.10
2023-02-07T17:23:01.607Z,4.10
2023-02-07T17:25:29.955Z,4.10
2023-02-07T17:27:58.321Z,4.10
2023-02-07T17:30:28.071Z,4.10
2023-02-07T17:32:56.244Z,4.10
2023-02-07T17:35:24.221Z,4.10
2023-02-07T17:37:51.182Z,4.10
2023-02-07T17:40:35.900Z,4.10
2023-02-07T17:43:03.379Z,4.10
2023-02-07T17:45:31.976Z,4.10
2023-02-07T17:47:59.642Z,4.00
2023-02-07T17:50:31.564Z,4.00
2023-02-07T17:53:01.428Z,4.10
2023-02-07T17:55:32.318Z,4.10
2023-02-07T17:57:59.955Z,4.10
2023-02-07T18:00:28.794Z,4.10
2023-02-07T18:02:55.734Z,4.10
2023-02-07T18:05:23.639Z,4.10
2023-02-07T18:07:51.355Z,4.10
2023-02-07T18:10:21.674Z,4.10
2023-02-07T18:12:48.747Z,4.10
2023-02-07T18:15:17.006Z,4.10
2023-02-07T18:17:47.284Z,4.10
2023-02-07T18:20:19.786Z,4.10
2023-02-07T18:22:47.387Z,4.20
2023-02-07T18:25:14.659Z,4.10
2023-02-07T18:27:41.700Z,4.20
2023-02-07T18:30:09.207Z,4.20
2023-02-07T18:32:36.229Z,4.20
2023-02-07T18:35:03.254Z,4.20
2023-02-07T18:37:30.227Z,4.20
2023-02-07T18:39:57.113Z,4.20
2023-02-07T18:42:24.857Z,4.20
2023-02-07T18:44:52.061Z,4.30
2023-02-07T18:47:20.235Z,4.30
2023-02-07T18:49:47.319Z,4.30
2023-02-07T18:52:14.328Z,4.30
2023-02-07T18:54:41.349Z,4.30
2023-02-07T18:57:08.700Z,4.30
2023-02-07T18:59:36.752Z,4.30
2023-02-07T19:02:04.537Z,4.30
2023-02-07T19:04:31.477Z,4.30
2023-02-07T19:06:59.769Z,4.30
2023-02-07T19:09:27.270Z,4.30
2023-02-07T19:11:55.776Z,4.40
2023-02-07T19:14:25.165Z,4.30
2023-02-07T19:16:54.047Z,4.30
2023-02-07T19:19:22.168Z,4.40
2023-02-07T19:21:49.446Z,4.40
2023-02-07T19:24:18.491Z,4.30
2023-02-07T19:26:51.604Z,4.40
2023-02-07T19:29:24.640Z,4.40
2023-02-07T19:31:51.595Z,4.40
2023-02-07T19:34:18.578Z,4.40
2023-02-07T19:36:45.510Z,4.40
2023-02-07T19:39:12.456Z,4.40
2023-02-07T19:41:39.358Z,4.30
2023-02-07T19:44:06.315Z,4.30
2023-02-07T19:46:33.638Z,4.40
2023-02-07T19:49:00.735Z,4.40
2023-02-07T19:51:29.015Z,4.30
2023-02-07T19:53:56.738Z,4.30
2023-02-07T19:56:25.705Z,4.30
2023-02-07T19:58:54.812Z,4.30
2023-02-07T20:01:25.157Z,4.30
2023-02-07T20:03:53.428Z,4.30
2023-02-07T20:06:23.525Z,4.30
2023-02-07T20:08:50.951Z,4.40
2023-02-07T20:11:20.084Z,4.40
2023-02-07T20:13:52.783Z,4.40
2023-02-07T20:16:22.434Z,4.30
2023-02-07T20:18:52.059Z,4.30
2023-02-07T20:21:25.282Z,4.30
2023-02-07T20:23:54.172Z,4.30
2023-02-07T20:26:24.400Z,4.30
2023-02-07T20:28:51.641Z,4.30
2023-02-07T20:31:21.254Z,4.30
2023-02-07T20:33:48.647Z,4.30
2023-02-07T20:36:17.912Z,4.30
2023-02-07T20:38:45.948Z,4.30
2023-02-07T20:41:31.576Z,4.30
2023-02-07T20:44:05.438Z,4.30
2023-02-07T20:46:34.433Z,4.30
2023-02-07T20:49:07.657Z,4.30
2023-02-07T20:51:35.043Z,4.30
2023-02-07T20:54:04.028Z,4.30
2023-02-07T20:56:32.827Z,4.30
2023-02-07T20:59:01.095Z,4.20
2023-02-07T21:01:29.948Z,4.20
2023-02-07T21:03:59.354Z,4.20
2023-02-07T21:06:27.592Z,4.20
2023-02-07T21:09:01.651Z,4.20
2023-02-07T21:11:33.852Z,4.20
2023-02-07T21:14:05.143Z,4.20
2023-02-07T21:16:34.694Z,4.10
2023-02-07T21:19:01.786Z,4.10
2023-02-07T21:21:29.251Z,4.00
2023-02-07T21:23:56.752Z,4.00
2023-02-07T21:26:23.701Z,4.00
2023-02-07T21:28:50.639Z,4.00
2023-02-07T21:31:19.939Z,3.90
2023-02-07T21:33:48.655Z,3.90
2023-02-07T21:36:24.148Z,3.90
2023-02-07T21:38:53.121Z,3.90
2023-02-07T21:41:22.688Z,3.90
2023-02-07T21:43:49.935Z,3.80
2023-02-07T21:46:21.934Z,3.80
2023-02-07T21:48:51.309Z,3.90
2023-02-07T21:51:21.223Z,3.80
2023-02-07T21:53:53.326Z,3.80
2023-02-07T21:56:25.052Z,3.80
2023-02-07T21:59:00.745Z,3.80
2023-02-07T22:01:28.790Z,3.80
2023-02-07T22:03:59.115Z,3.80
2023-02-07T22:06:27.246Z,3.80
2023-02-07T22:08:57.436Z,3.80
2023-02-07T22:11:27.527Z,3.80
2023-02-07T22:13:54.876Z,3.80
2023-02-07T22:16:23.914Z,3.70
2023-02-07T22:18:53.371Z,3.70
2023-02-07T22:21:22.811Z,3.70
2023-02-07T22:23:50.601Z,3.80
2023-02-07T22:26:20.534Z,3.70
2023-02-07T22:28:48.328Z,3.70
2023-02-07T22:31:24.372Z,3.70
2023-02-07T22:33:53.485Z,3.60
2023-02-07T22:36:26.650Z,3.60
2023-02-07T22:38:54.512Z,3.60
2023-02-07T22:41:22.399Z,3.60
2023-02-07T22:43:50.160Z,3.60
2023-02-07T22:46:19.798Z,3.60
2023-02-07T22:48:47.395Z,3.60
2023-02-07T22:51:38.150Z,3.60
2023-02-07T22:54:09.785Z,3.60
2023-02-07T22:56:38.160Z,3.60
2023-02-07T22:59:05.845Z,3.60
2023-02-07T23:01:36.670Z,3.60
2023-02-07T23:04:05.135Z,3.60
2023-02-07T23:06:35.134Z,3.60
2023-02-07T23:09:02.469Z,3.70
2023-02-07T23:11:29.409Z,3.70
2023-02-07T23:13:56.468Z,3.70
2023-02-07T23:16:25.426Z,3.60
2023-02-07T23:18:56.346Z,3.60
2023-02-07T23:21:25.468Z,3.70
2023-02-07T23:23:52.629Z,3.70
2023-02-07T23:26:22.341Z,3.70
2023-02-07T23:28:49.521Z,3.70
2023-02-07T23:31:18.108Z,3.70
2023-02-07T23:33:45.208Z,3.70
2023-02-07T23:36:12.814Z,3.70
2023-02-07T23:38:40.421Z,3.80
2023-02-07T23:41:07.916Z,3.80
2023-02-07T23:43:36.483Z,3.80
2023-02-07T23:46:04.534Z,3.70
2023-02-07T23:48:34.487Z,3.80
2023-02-07T23:51:03.851Z,3.80
2023-02-07T23:53:31.372Z,3.80
2023-02-07T23:55:58.989Z,3.80
2023-02-07T23:58:26.899Z,3.80
